createdAt,value
2023-01-17T00:02:22.643Z,93317.56
2023-01-17T00:05:07.774Z,93320.78
2023-01-17T00:07:52.983Z,93279.59
2023-01-17T00:10:22.170Z,93336.41
2023-01-17T00:12:53.822Z,93340.06
2023-01-17T00:15:23.232Z,93338.22
2023-01-17T00:17:50.738Z,93332.03
2023-01-17T00:20:39.025Z,93332.19
2023-01-17T00:23:33.137Z,93342.19
2023-01-17T00:26:05.760Z,93352.19
2023-01-17T00:28:37.688Z,93358.50
2023-01-17T00:31:05.866Z,93347.28
2023-01-17T00:33:34.892Z,93336.19
2023-01-17T00:36:02.491Z,93353.22
2023-01-17T00:38:31.860Z,93352.81
2023-01-17T00:41:06.422Z,93357.28
2023-01-17T00:43:51.856Z,93322.25
2023-01-17T00:46:37.320Z,93341.25
2023-01-17T00:49:22.982Z,93350.16
2023-01-17T00:52:08.291Z,93320.75
2023-01-17T00:54:53.434Z,93321.91
2023-01-17T00:57:38.665Z,93321.03
2023-01-17T01:00:25.086Z,93295.06
2023-01-17T01:03:09.962Z,93354.63
2023-01-17T01:05:56.565Z,93308.84
2023-01-17T01:08:47.509Z,93354.19
2023-01-17T01:11:36.359Z,93360.06
2023-01-17T01:14:21.518Z,93348.78
2023-01-17T01:17:06.821Z,93368.63
2023-01-17T01:19:52.791Z,93358.34
2023-01-17T01:22:38.091Z,93383.09
2023-01-17T01:25:23.881Z,93371.59
2023-01-17T01:28:09.061Z,93357.59
2023-01-17T01:30:54.201Z,93390.44
2023-01-17T01:33:20.839Z,93369.19
2023-01-17T01:35:53.921Z,93330.66
2023-01-17T01:38:23.849Z,93398.16
2023-01-17T01:40:55.879Z,93394.66
2023-01-17T01:43:49.230Z,93406.31
2023-01-17T01:46:27.226Z,93393.84
2023-01-17T01:49:02.267Z,93394.09
2023-01-17T01:51:45.695Z,93422.56
2023-01-17T01:54:19.175Z,93428.50
2023-01-17T01:56:47.801Z,93436.66
2023-01-17T01:59:18.282Z,93437.00
2023-01-17T02:01:46.221Z,93418.97
2023-01-17T02:04:13.943Z,93427.59
2023-01-17T02:06:51.622Z,93431.91
2023-01-17T02:09:18.508Z,93437.59
2023-01-17T02:11:47.172Z,93423.94
2023-01-17T02:14:18.824Z,93438.63
2023-01-17T02:17:19.869Z,93444.91
2023-01-17T02:20:11.397Z,93414.03
2023-01-17T02:22:56.758Z,93445.56
2023-01-17T02:25:57.943Z,93451.88
2023-01-17T02:28:36.711Z,93453.66
2023-01-17T02:31:18.195Z,93438.97
2023-01-17T02:33:55.071Z,93448.94
2023-01-17T02:36:33.136Z,93471.38
2023-01-17T02:39:02.815Z,93438.97
2023-01-17T02:41:43.402Z,93462.81
2023-01-17T02:44:15.371Z,93451.97
2023-01-17T02:46:56.634Z,93461.19
2023-01-17T02:49:27.974Z,93420.78
2023-01-17T02:52:17.660Z,93420.88
2023-01-17T02:55:09.040Z,93449.91
2023-01-17T02:57:54.298Z,93466.59
2023-01-17T03:00:20.896Z,93443.84
2023-01-17T03:02:50.416Z,93453.06
2023-01-17T03:05:24.215Z,93432.19
2023-01-17T03:07:53.806Z,93445.22
2023-01-17T03:10:21.789Z,93453.91
2023-01-17T03:12:48.427Z,93442.41
2023-01-17T03:15:17.548Z,93461.06
2023-01-17T03:17:48.514Z,93452.81
2023-01-17T03:20:15.639Z,93465.75
2023-01-17T03:22:42.301Z,93443.00
2023-01-17T03:25:09.124Z,93446.38
2023-01-17T03:27:35.809Z,93419.94
2023-01-17T03:30:02.403Z,93443.50
2023-01-17T03:32:29.059Z,93468.69
2023-01-17T03:34:55.683Z,93471.50
2023-01-17T03:37:22.626Z,93411.19
2023-01-17T03:39:49.194Z,93473.78
2023-01-17T03:42:15.802Z,93470.84
2023-01-17T03:44:42.585Z,93409.44
2023-01-17T03:47:12.128Z,93474.38
2023-01-17T03:49:39.625Z,93447.19
2023-01-17T03:52:07.228Z,93406.75
2023-01-17T03:54:34.121Z,93470.59
2023-01-17T03:57:00.712Z,93462.44
2023-01-17T03:59:27.418Z,93476.13
2023-01-17T04:01:54.033Z,93487.97
2023-01-17T04:04:20.675Z,93475.38
2023-01-17T04:06:48.056Z,93461.69
2023-01-17T04:09:14.816Z,93481.53
2023-01-17T04:11:41.408Z,93494.41
2023-01-17T04:14:08.054Z,93513.19
2023-01-17T04:16:34.959Z,93488.34
2023-01-17T04:19:01.647Z,93477.09
2023-01-17T04:21:28.350Z,93467.28
2023-01-17T04:23:54.910Z,93484.06
2023-01-17T04:26:21.494Z,93514.94
2023-01-17T04:28:48.393Z,93481.72
2023-01-17T04:31:17.007Z,93517.53
2023-01-17T04:33:43.916Z,93494.19
2023-01-17T04:36:10.708Z,93490.25
2023-01-17T04:38:37.575Z,93509.91
2023-01-17T04:41:04.541Z,93533.13
2023-01-17T04:43:31.324Z,93507.78
2023-01-17T04:45:58.615Z,93533.81
2023-01-17T04:48:26.154Z,93525.22
2023-01-17T04:51:00.605Z,93548.72
2023-01-17T04:53:27.466Z,93546.38
2023-01-17T04:55:54.275Z,93527.72
2023-01-17T04:58:21.049Z,93553.75
2023-01-17T05:00:50.913Z,93546.19
2023-01-17T05:03:18.861Z,93572.78
2023-01-17T05:05:45.601Z,93542.22
2023-01-17T05:08:12.370Z,93563.84
2023-01-17T05:10:39.529Z,93515.16
2023-01-17T05:13:06.763Z,93580.75
2023-01-17T05:15:33.425Z,93530.69
2023-01-17T05:18:00.034Z,93554.91
2023-01-17T05:20:27.553Z,93580.97
2023-01-17T05:22:57.814Z,93592.53
2023-01-17T05:25:26.482Z,93506.66
2023-01-17T05:27:53.338Z,93591.59
2023-01-17T05:30:20.579Z,93538.72
2023-01-17T05:32:52.418Z,93592.44
2023-01-17T05:35:21.339Z,93574.19
2023-01-17T05:37:49.427Z,93599.38
2023-01-17T05:40:18.031Z,93582.66
2023-01-17T05:42:48.931Z,93566.75
2023-01-17T05:45:17.103Z,93583.28
2023-01-17T05:47:49.122Z,93604.16
2023-01-17T05:50:19.099Z,93564.69
2023-01-17T05:52:53.484Z,93613.88
2023-01-17T05:55:20.964Z,93616.94
2023-01-17T05:57:47.694Z,93587.97
2023-01-17T06:00:15.190Z,93583.75
2023-01-17T06:02:42.298Z,93622.22
2023-01-17T06:05:09.354Z,93592.94
2023-01-17T06:07:36.007Z,93600.09
2023-01-17T06:10:02.702Z,93605.06
2023-01-17T06:12:29.359Z,93606.06
2023-01-17T06:14:56.054Z,93597.63
2023-01-17T06:17:22.707Z,93601.28
2023-01-17T06:19:49.361Z,93620.22
2023-01-17T06:22:15.896Z,93585.50
2023-01-17T06:24:42.499Z,93576.66
2023-01-17T06:27:10.519Z,93616.53
2023-01-17T06:29:37.434Z,93603.56
2023-01-17T06:32:04.595Z,93603.56
2023-01-17T06:34:31.515Z,93637.97
2023-01-17T06:36:58.181Z,93573.75
2023-01-17T06:39:24.901Z,93641.22
2023-01-17T06:41:51.486Z,93635.06
2023-01-17T06:44:18.094Z,93608.00
2023-01-17T06:46:45.106Z,93613.84
2023-01-17T06:49:11.741Z,93627.81
2023-01-17T06:51:38.338Z,93623.91
2023-01-17T06:54:05.074Z,93651.28
2023-01-17T06:56:33.337Z,93628.75
2023-01-17T06:58:59.928Z,93620.09
2023-01-17T07:01:26.604Z,93640.56
2023-01-17T07:03:53.546Z,93661.66
2023-01-17T07:06:20.169Z,93642.19
2023-01-17T07:08:47.503Z,93635.25
2023-01-17T07:11:14.118Z,93647.91
2023-01-17T07:13:41.809Z,93610.34
2023-01-17T07:16:08.995Z,93661.53
2023-01-17T07:18:35.659Z,93660.78
2023-01-17T07:21:02.349Z,93667.06
2023-01-17T07:23:28.922Z,93633.94
2023-01-17T07:25:58.082Z,93671.72
2023-01-17T07:28:25.963Z,93658.63
2023-01-17T07:30:52.757Z,93635.22
2023-01-17T07:33:20.012Z,93608.09
2023-01-17T07:35:46.879Z,93681.91
2023-01-17T07:38:18.711Z,93644.88
2023-01-17T07:40:46.125Z,93627.78
2023-01-17T07:43:17.349Z,93665.56
2023-01-17T07:45:46.069Z,93686.31
2023-01-17T07:48:13.130Z,93664.91
2023-01-17T07:50:39.817Z,93677.75
2023-01-17T07:53:06.428Z,93700.28
2023-01-17T07:55:33.235Z,93704.28
2023-01-17T07:58:02.284Z,93697.22
2023-01-17T08:00:29.603Z,93670.16
2023-01-17T08:03:01.158Z,93675.38
2023-01-17T08:05:30.628Z,93674.09
2023-01-17T08:07:57.323Z,93665.66
2023-01-17T08:10:25.424Z,93647.16
2023-01-17T08:12:53.259Z,93682.13
2023-01-17T08:15:19.942Z,93633.19
2023-01-17T08:17:47.824Z,93678.53
2023-01-17T08:20:15.491Z,93665.25
2023-01-17T08:22:42.352Z,93656.13
2023-01-17T08:25:09.539Z,93673.47
2023-01-17T08:27:36.439Z,93666.44
2023-01-17T08:30:03.559Z,93626.38
2023-01-17T08:32:30.143Z,93665.09
2023-01-17T08:34:57.190Z,93595.47
2023-01-17T08:37:24.409Z,93663.06
2023-01-17T08:39:51.167Z,93631.06
2023-01-17T08:42:18.155Z,93671.97
2023-01-17T08:44:44.778Z,93643.41
2023-01-17T08:47:11.536Z,93660.34
2023-01-17T08:49:38.145Z,93671.19
2023-01-17T08:52:05.389Z,93667.31
2023-01-17T08:54:32.003Z,93634.97
2023-01-17T08:56:58.605Z,93645.25
2023-01-17T08:59:25.238Z,93644.91
2023-01-17T09:01:52.605Z,93644.16
2023-01-17T09:04:19.383Z,93644.69
2023-01-17T09:06:48.205Z,93639.16
2023-01-17T09:09:17.285Z,93681.13
2023-01-17T09:11:43.897Z,93644.34
2023-01-17T09:14:12.669Z,93672.50
2023-01-17T09:16:39.361Z,93665.31
2023-01-17T09:19:06.084Z,93632.34
2023-01-17T09:21:32.954Z,93649.63
2023-01-17T09:23:59.555Z,93673.31
2023-01-17T09:26:29.229Z,93624.00
2023-01-17T09:28:56.191Z,93679.94
2023-01-17T09:31:23.915Z,93664.78
2023-01-17T09:33:52.049Z,93657.06
2023-01-17T09:36:19.163Z,93667.75
2023-01-17T09:38:46.265Z,93689.50
2023-01-17T09:41:41.962Z,93693.09
2023-01-17T09:44:38.096Z,93697.75
2023-01-17T09:47:18.360Z,93632.72
2023-01-17T09:49:46.826Z,93691.94
2023-01-17T09:52:20.989Z,93693.19
2023-01-17T09:54:49.114Z,93676.66
2023-01-17T09:57:28.039Z,93688.28
2023-01-17T10:00:09.448Z,93683.09
2023-01-17T10:02:51.419Z,93682.97
2023-01-17T10:05:45.887Z,93687.66
2023-01-17T10:08:30.705Z,93685.22
2023-01-17T10:11:25.330Z,93700.44
2023-01-17T10:14:13.519Z,93661.19
2023-01-17T10:16:58.121Z,93680.91
2023-01-17T10:19:52.886Z,93631.94
2023-01-17T10:22:39.114Z,93674.09
2023-01-17T10:25:19.728Z,93671.25
2023-01-17T10:27:57.267Z,93635.03
2023-01-17T10:30:33.516Z,93664.38
2023-01-17T10:33:03.941Z,93580.34
2023-01-17T10:35:36.946Z,93659.16
2023-01-17T10:38:10.507Z,93650.84
2023-01-17T10:40:44.685Z,93622.53
2023-01-17T10:43:20.383Z,93633.59
2023-01-17T10:45:56.010Z,93627.28
2023-01-17T10:48:41.447Z,93668.34
2023-01-17T10:51:21.899Z,93658.84
2023-01-17T10:54:04.257Z,93635.00
2023-01-17T10:56:31.132Z,93586.53
2023-01-17T10:59:18.451Z,93666.31
2023-01-17T11:01:45.577Z,93628.47
2023-01-17T11:04:18.156Z,93634.72
2023-01-17T11:06:57.778Z,93641.81
2023-01-17T11:09:46.524Z,93642.09
2023-01-17T11:12:28.363Z,93631.78
2023-01-17T11:15:03.473Z,93631.34
2023-01-17T11:17:31.651Z,93635.31
2023-01-17T11:20:14.985Z,93597.50
2023-01-17T11:22:46.085Z,93605.06
2023-01-17T11:25:24.694Z,93594.56
2023-01-17T11:28:01.864Z,93593.75
2023-01-17T11:30:29.533Z,93611.66
2023-01-17T11:33:00.994Z,93607.09
2023-01-17T11:35:45.074Z,93603.81
2023-01-17T11:38:22.628Z,93596.69
2023-01-17T11:40:50.318Z,93542.78
2023-01-17T11:43:21.308Z,93518.84
2023-01-17T11:46:15.424Z,93582.63
2023-01-17T11:48:46.569Z,93573.38
2023-01-17T11:51:35.021Z,93596.88
2023-01-17T11:54:26.976Z,93547.16
2023-01-17T11:56:58.574Z,93580.03
2023-01-17T11:59:37.508Z,93587.59
2023-01-17T12:02:43.200Z,93586.09
2023-01-17T12:05:27.986Z,93593.28
2023-01-17T12:07:54.514Z,93590.69
2023-01-17T12:10:39.857Z,93573.06
2023-01-17T12:13:52.797Z,93509.44
2023-01-17T12:17:03.799Z,93580.47
2023-01-17T12:19:34.424Z,93584.81
2023-01-17T12:22:34.147Z,93585.91
2023-01-17T12:25:14.867Z,93584.66
2023-01-17T12:27:57.730Z,93578.09
2023-01-17T12:30:37.832Z,93556.47
2023-01-17T12:33:22.968Z,93578.91
2023-01-17T12:36:03.576Z,93565.13
2023-01-17T12:38:36.847Z,93556.56
2023-01-17T12:41:07.181Z,93551.22
2023-01-17T12:43:37.292Z,93553.03
2023-01-17T12:46:12.622Z,93558.84
2023-01-17T12:48:39.522Z,93513.56
2023-01-17T12:51:18.170Z,93523.81
2023-01-17T12:54:09.366Z,93540.34
2023-01-17T12:56:42.712Z,93538.41
2023-01-17T12:59:15.807Z,93545.00
2023-01-17T13:01:57.412Z,93551.38
2023-01-17T13:04:46.898Z,93554.34
2023-01-17T13:07:39.293Z,93549.91
2023-01-17T13:10:38.168Z,93542.09
2023-01-17T13:13:25.565Z,93541.13
2023-01-17T13:16:00.545Z,93527.00
2023-01-17T13:18:29.767Z,93549.28
2023-01-17T13:21:28.989Z,93512.69
2023-01-17T13:24:07.450Z,93553.59
2023-01-17T13:26:41.418Z,93565.25
2023-01-17T13:29:19.971Z,93525.38
2023-01-17T13:31:51.687Z,93563.63
2023-01-17T13:34:30.574Z,93545.25
2023-01-17T13:37:15.386Z,93550.09
2023-01-17T13:40:09.991Z,93566.69
2023-01-17T13:43:00.775Z,93535.75
2023-01-17T13:45:31.518Z,93549.31
2023-01-17T13:48:14.642Z,93555.69
2023-01-17T13:50:41.286Z,93539.84
2023-01-17T13:53:36.751Z,93531.94
2023-01-17T13:56:18.661Z,93533.06
2023-01-17T13:58:47.804Z,93547.31
2023-01-17T14:01:15.126Z,93532.66
2023-01-17T14:03:53.671Z,93536.38
2023-01-17T14:06:38.695Z,93536.50
2023-01-17T14:09:16.668Z,93528.81
2023-01-17T14:12:13.452Z,93540.50
2023-01-17T14:14:40.023Z,93542.81
2023-01-17T14:17:15.840Z,93537.78
2023-01-17T14:19:45.562Z,93519.75
2023-01-17T14:22:32.080Z,93518.88
2023-01-17T14:25:14.952Z,93530.50
2023-01-17T14:27:50.629Z,93524.72
2023-01-17T14:30:17.608Z,93523.22
2023-01-17T14:33:22.703Z,93492.50
2023-01-17T14:36:01.128Z,93515.75
2023-01-17T14:38:32.650Z,93497.97
2023-01-17T14:41:07.895Z,93514.28
2023-01-17T14:43:38.968Z,93490.53
2023-01-17T14:46:12.822Z,93468.84
2023-01-17T14:48:41.059Z,93459.63
2023-01-17T14:51:20.099Z,93491.34
2023-01-17T14:54:02.215Z,93491.41
2023-01-17T14:56:30.788Z,93485.53
2023-01-17T14:59:21.099Z,93458.16
2023-01-17T15:02:06.765Z,93460.69
2023-01-17T15:04:39.327Z,93466.75
2023-01-17T15:07:07.403Z,93430.25
2023-01-17T15:09:37.810Z,93458.97
2023-01-17T15:12:08.215Z,93430.25
2023-01-17T15:14:38.122Z,93452.41
2023-01-17T15:17:24.727Z,93447.88
2023-01-17T15:20:01.440Z,93419.69
2023-01-17T15:22:29.823Z,93416.75
2023-01-17T15:24:58.238Z,93439.88
2023-01-17T15:27:25.624Z,93419.06
2023-01-17T15:29:52.421Z,93419.63
2023-01-17T15:32:24.631Z,93425.78
2023-01-17T15:34:52.472Z,93405.25
2023-01-17T15:37:22.293Z,93422.94
2023-01-17T15:39:49.160Z,93399.78
2023-01-17T15:42:31.280Z,93424.81
2023-01-17T15:45:05.183Z,93419.88
2023-01-17T15:47:40.366Z,93430.00
2023-01-17T15:50:26.555Z,93430.09
2023-01-17T15:52:57.848Z,93433.50
2023-01-17T15:55:32.292Z,93430.28
2023-01-17T15:57:59.350Z,93399.59
2023-01-17T16:00:39.189Z,93430.28
2023-01-17T16:03:24.592Z,93430.06
2023-01-17T16:05:53.589Z,93392.88
2023-01-17T16:08:28.794Z,93436.19
2023-01-17T16:11:02.227Z,93437.34
2023-01-17T16:13:30.956Z,93431.75
2023-01-17T16:16:13.978Z,93402.72
2023-01-17T16:18:40.997Z,93388.69
2023-01-17T16:21:16.997Z,93391.91
2023-01-17T16:23:43.635Z,93378.66
2023-01-17T16:26:10.922Z,93400.88
2023-01-17T16:28:38.253Z,93364.06
2023-01-17T16:31:05.034Z,93379.88
2023-01-17T16:33:31.671Z,93387.25
2023-01-17T16:35:58.251Z,93398.91
2023-01-17T16:38:24.923Z,93413.25
2023-01-17T16:40:51.614Z,93385.19
2023-01-17T16:43:19.693Z,93411.44
2023-01-17T16:45:49.040Z,93411.22
2023-01-17T16:48:18.949Z,93414.34
2023-01-17T16:50:50.358Z,93395.78
2023-01-17T16:53:18.856Z,93412.19
2023-01-17T16:55:45.478Z,93378.06
2023-01-17T16:58:12.053Z,93423.88
2023-01-17T17:00:40.248Z,93413.69
2023-01-17T17:03:07.159Z,93395.69
2023-01-17T17:05:34.199Z,93399.03
2023-01-17T17:08:00.980Z,93390.91
2023-01-17T17:10:27.785Z,93387.34
2023-01-17T17:12:54.873Z,93390.13
2023-01-17T17:15:21.579Z,93408.28
2023-01-17T17:17:48.464Z,93358.19
2023-01-17T17:20:15.706Z,93389.91
2023-01-17T17:22:48.887Z,93415.53
2023-01-17T17:25:15.989Z,93414.97
2023-01-17T17:27:43.012Z,93397.50
2023-01-17T17:30:10.763Z,93415.72
2023-01-17T17:32:37.378Z,93405.78
2023-01-17T17:35:04.574Z,93398.56
2023-01-17T17:37:31.260Z,93369.81
2023-01-17T17:39:58.104Z,93389.91
2023-01-17T17:42:24.787Z,93385.16
2023-01-17T17:44:51.523Z,93389.16
2023-01-17T17:47:18.228Z,93381.72
2023-01-17T17:49:44.874Z,93350.50
2023-01-17T17:52:11.632Z,93379.13
2023-01-17T17:54:38.371Z,93361.41
2023-01-17T17:57:05.454Z,93380.31
2023-01-17T17:59:32.152Z,93367.13
2023-01-17T18:01:59.716Z,93390.88
2023-01-17T18:04:26.711Z,93380.41
2023-01-17T18:06:59.612Z,93396.63
2023-01-17T18:09:26.185Z,93399.97
2023-01-17T18:11:52.974Z,93387.88
2023-01-17T18:14:22.100Z,93403.03
2023-01-17T18:16:48.826Z,93387.13
2023-01-17T18:19:21.372Z,93408.84
2023-01-17T18:21:48.747Z,93407.41
2023-01-17T18:24:17.555Z,93404.41
2023-01-17T18:26:50.223Z,93409.34
2023-01-17T18:29:18.592Z,93372.28
2023-01-17T18:31:46.567Z,93406.31
2023-01-17T18:34:15.533Z,93415.16
2023-01-17T18:36:43.166Z,93411.53
2023-01-17T18:39:16.149Z,93394.03
2023-01-17T18:41:43.080Z,93400.66
2023-01-17T18:44:10.774Z,93420.31
2023-01-17T18:46:40.349Z,93421.19
2023-01-17T18:49:07.458Z,93411.94
2023-01-17T18:51:34.618Z,93415.16
2023-01-17T18:54:05.813Z,93393.50
2023-01-17T18:56:34.279Z,93420.97
2023-01-17T18:59:01.987Z,93422.72
2023-01-17T19:01:32.041Z,93436.22
2023-01-17T19:04:01.521Z,93435.69
2023-01-17T19:06:31.489Z,93431.81
2023-01-17T19:08:58.974Z,93431.16
2023-01-17T19:11:26.927Z,93448.53
2023-01-17T19:13:53.858Z,93438.22
2023-01-17T19:16:28.015Z,93453.63
2023-01-17T19:18:56.204Z,93451.47
2023-01-17T19:21:25.496Z,93461.66
2023-01-17T19:23:52.320Z,93403.50
2023-01-17T19:26:23.979Z,93436.09
2023-01-17T19:28:51.388Z,93440.59
2023-01-17T19:31:23.245Z,93458.00
2023-01-17T19:33:52.451Z,93438.44
2023-01-17T19:36:24.883Z,93434.22
2023-01-17T19:39:03.474Z,93383.13
2023-01-17T19:41:31.443Z,93394.94
2023-01-17T19:44:06.567Z,93448.47
2023-01-17T19:46:34.041Z,93460.50
2023-01-17T19:49:00.989Z,93455.41
2023-01-17T19:51:28.349Z,93455.53
2023-01-17T19:53:59.626Z,93464.59
2023-01-17T19:56:26.820Z,93450.47
2023-01-17T19:58:53.935Z,93466.53
2023-01-17T20:01:27.700Z,93472.63
2023-01-17T20:03:57.489Z,93446.25
2023-01-17T20:06:26.967Z,93423.72
2023-01-17T20:08:53.643Z,93418.22
2023-01-17T20:11:22.496Z,93407.41
2023-01-17T20:13:53.350Z,93452.34
2023-01-17T20:16:21.012Z,93438.28
2023-01-17T20:18:47.660Z,93413.31
2023-01-17T20:21:25.498Z,93450.09
2023-01-17T20:23:54.291Z,93450.22
2023-01-17T20:26:25.002Z,93421.84
2023-01-17T20:28:52.300Z,93440.53
2023-01-17T20:31:22.639Z,93410.31
2023-01-17T20:33:50.471Z,93450.63
2023-01-17T20:36:18.763Z,93441.69
2023-01-17T20:38:46.256Z,93458.34
2023-01-17T20:41:26.039Z,93447.03
2023-01-17T20:43:55.589Z,93400.81
2023-01-17T20:46:24.766Z,93442.91
2023-01-17T20:48:53.630Z,93434.81
2023-01-17T20:51:21.433Z,93436.13
2023-01-17T20:53:56.403Z,93424.31
2023-01-17T20:56:24.329Z,93436.38
2023-01-17T20:58:51.949Z,93445.56
2023-01-17T21:01:19.355Z,93446.03
2023-01-17T21:03:47.986Z,93444.28
2023-01-17T21:06:15.229Z,93433.69
2023-01-17T21:08:43.741Z,93421.13
2023-01-17T21:11:12.458Z,93442.97
2023-01-17T21:13:40.099Z,93399.16
2023-01-17T21:16:09.322Z,93437.03
2023-01-17T21:18:36.619Z,93432.16
2023-01-17T21:21:14.117Z,93429.66
2023-01-17T21:23:42.267Z,93411.09
2023-01-17T21:26:12.042Z,93414.69
2023-01-17T21:28:41.310Z,93421.13
2023-01-17T21:31:36.680Z,93379.41
2023-01-17T21:34:06.390Z,93411.19
2023-01-17T21:36:36.008Z,93409.56
2023-01-17T21:39:06.736Z,93359.72
2023-01-17T21:41:36.181Z,93396.31
2023-01-17T21:44:08.598Z,93404.84
2023-01-17T21:46:40.193Z,93397.66
2023-01-17T21:49:10.686Z,93393.91
2023-01-17T21:51:53.944Z,93372.84
2023-01-17T21:54:44.568Z,93373.94
2023-01-17T21:57:31.199Z,93388.09
2023-01-17T21:59:58.052Z,93380.28
2023-01-17T22:02:24.741Z,93365.09
2023-01-17T22:04:51.597Z,93365.41
2023-01-17T22:07:18.269Z,93331.16
2023-01-17T22:09:44.848Z,93366.59
2023-01-17T22:12:11.529Z,93370.06
2023-01-17T22:14:39.042Z,93348.25
2023-01-17T22:17:05.743Z,93386.13
2023-01-17T22:19:33.723Z,93359.59
2023-01-17T22:22:00.644Z,93368.09
2023-01-17T22:24:27.200Z,93371.34
2023-01-17T22:26:55.952Z,93367.53
2023-01-17T22:29:22.980Z,93359.88
2023-01-17T22:31:49.605Z,93370.91
2023-01-17T22:34:16.356Z,93407.53
2023-01-17T22:36:43.015Z,93399.31
2023-01-17T22:39:10.204Z,93421.84
2023-01-17T22:41:38.317Z,93416.72
2023-01-17T22:44:08.522Z,93389.56
2023-01-17T22:46:37.244Z,93409.28
2023-01-17T22:49:05.828Z,93407.53
2023-01-17T22:51:32.445Z,93397.38
2023-01-17T22:54:00.577Z,93413.03
2023-01-17T22:56:30.652Z,93397.69
2023-01-17T22:59:00.607Z,93378.34
2023-01-17T23:01:32.826Z,93396.00
2023-01-17T23:04:02.141Z,93386.59
2023-01-17T23:06:33.837Z,93409.41
2023-01-17T23:09:03.202Z,93385.06
2023-01-17T23:11:38.952Z,93415.03
2023-01-17T23:14:25.879Z,93377.53
2023-01-17T23:17:14.008Z,93380.09
2023-01-17T23:19:43.136Z,93394.53
2023-01-17T23:22:20.809Z,93424.00
2023-01-17T23:24:51.098Z,93429.84
2023-01-17T23:27:45.951Z,93410.06
2023-01-17T23:30:25.015Z,93401.41
2023-01-17T23:32:55.785Z,93418.25
2023-01-17T23:35:27.807Z,93400.28
2023-01-17T23:38:13.734Z,93416.09
2023-01-17T23:40:40.835Z,93402.91
2023-01-17T23:43:25.524Z,93428.94
2023-01-17T23:45:53.805Z,93433.50
2023-01-17T23:48:23.571Z,93417.72
2023-01-17T23:50:50.306Z,93390.25
2023-01-17T23:53:22.694Z,93409.59
2023-01-17T23:55:54.973Z,93359.69
2023-01-17T23:58:24.409Z,93433.03
